createdAt,value
2023-04-03T00:01:04.963Z,2.13
2023-04-03T00:06:09.809Z,2.28
2023-04-03T00:11:12.801Z,2.13
2023-04-03T00:16:16.142Z,2.20
2023-04-03T00:21:20.462Z,2.40
2023-04-03T00:26:23.333Z,2.50
2023-04-03T00:31:26.453Z,2.00
2023-04-03T00:36:31.828Z,2.10
2023-04-03T00:41:34.845Z,2.47
2023-04-03T00:46:37.703Z,2.85
2023-04-03T00:51:42.060Z,2.30
2023-04-03T00:56:45.590Z,2.57
2023-04-03T01:01:48.953Z,2.45
2023-04-03T01:06:53.416Z,2.70
2023-04-03T01:11:56.705Z,2.95
2023-04-03T01:16:59.737Z,3.20
2023-04-03T01:22:13.836Z,3.83
2023-04-03T01:27:16.665Z,3.10
2023-04-03T01:32:21.004Z,3.65
2023-04-03T01:37:23.974Z,4.13
2023-04-03T01:42:26.975Z,4.50
2023-04-03T01:47:32.011Z,3.63
2023-04-03T01:52:35.168Z,4.32
2023-04-03T01:57:38.147Z,4.40
2023-04-03T02:02:42.456Z,4.20
2023-04-03T02:07:45.494Z,4.45
2023-04-03T02:12:48.308Z,4.22
2023-04-03T02:17:53.037Z,4.37
2023-04-03T02:22:56.487Z,4.05
2023-04-03T02:28:01.666Z,4.10
2023-04-03T02:33:05.900Z,3.95
2023-04-03T02:38:08.876Z,4.20
2023-04-03T02:43:12.246Z,4.60
2023-04-03T02:48:17.939Z,3.60
2023-04-03T02:53:21.268Z,4.03
2023-04-03T02:58:25.799Z,3.10
2023-04-03T03:03:32.542Z,3.55
2023-04-03T03:08:36.012Z,3.70
2023-04-03T03:13:39.149Z,3.10
2023-04-03T03:18:43.311Z,4.30
2023-04-03T03:23:46.248Z,3.63
2023-04-03T03:28:49.048Z,3.85
2023-04-03T03:33:53.299Z,3.57
2023-04-03T03:38:56.111Z,3.85
2023-04-03T03:44:00.481Z,3.90
2023-04-03T03:49:07.086Z,4.20
2023-04-03T03:54:10.490Z,3.80
2023-04-03T03:59:13.824Z,3.70
2023-04-03T04:04:18.512Z,4.80
2023-04-03T04:09:22.035Z,4.30
2023-04-03T04:14:25.129Z,4.60
2023-04-03T04:19:30.427Z,4.37
2023-04-03T04:24:33.481Z,4.93
2023-04-03T04:29:38.951Z,5.03
2023-04-03T04:34:45.553Z,5.03
2023-04-03T04:39:48.587Z,4.90
2023-04-03T04:44:51.922Z,4.93
2023-04-03T04:49:56.618Z,5.72
2023-04-03T04:54:59.962Z,5.18
2023-04-03T05:00:04.005Z,5.13
2023-04-03T05:05:10.181Z,4.78
2023-04-03T05:10:14.294Z,5.70
2023-04-03T05:15:17.671Z,5.33
2023-04-03T05:20:22.645Z,6.03
2023-04-03T05:25:27.289Z,7.07
2023-04-03T05:30:31.394Z,7.20
2023-04-03T05:35:37.769Z,7.35
2023-04-03T05:40:41.438Z,7.50
2023-04-03T05:45:46.777Z,7.28
2023-04-03T05:50:52.244Z,7.32
2023-04-03T05:56:00.292Z,6.50
2023-04-03T06:01:05.058Z,6.70
2023-04-03T06:06:09.590Z,6.00
2023-04-03T06:11:12.774Z,6.60
2023-04-03T06:16:16.319Z,5.80
2023-04-03T06:21:20.737Z,7.28
2023-04-03T06:26:23.550Z,6.25
2023-04-03T06:31:26.600Z,6.25
2023-04-03T06:36:31.090Z,6.68
2023-04-03T06:41:35.303Z,6.47
2023-04-03T06:46:39.316Z,6.22
2023-04-03T06:51:43.596Z,4.85
2023-04-03T06:56:46.936Z,5.10
2023-04-03T07:01:49.880Z,5.15
2023-04-03T07:06:54.430Z,4.80
2023-04-03T07:11:57.199Z,4.85
2023-04-03T07:16:59.977Z,4.37
2023-04-03T07:22:04.349Z,5.20
2023-04-03T07:27:09.377Z,4.00
2023-04-03T07:32:12.742Z,4.53
2023-04-03T07:37:17.252Z,4.23
2023-04-03T07:42:20.213Z,4.40
2023-04-03T07:47:23.223Z,4.80
2023-04-03T07:52:27.460Z,4.60
2023-04-03T07:57:30.640Z,4.63
2023-04-03T08:02:33.917Z,4.13
2023-04-03T08:07:38.612Z,4.03
2023-04-03T08:12:41.422Z,4.55
2023-04-03T08:17:44.238Z,3.33
2023-04-03T08:22:48.491Z,3.20
2023-04-03T08:27:51.664Z,4.50
2023-04-03T08:32:54.603Z,4.03
2023-04-03T08:37:58.839Z,4.45
2023-04-03T08:43:09.943Z,3.88
2023-04-03T08:48:16.538Z,4.13
2023-04-03T08:53:23.426Z,2.92
2023-04-03T08:58:29.124Z,4.13
2023-04-03T09:03:33.093Z,3.40
2023-04-03T09:08:41.186Z,3.30
2023-04-03T09:13:49.518Z,2.85
2023-04-03T09:18:56.981Z,2.70
2023-04-03T09:24:03.717Z,2.70
2023-04-03T09:29:08.614Z,2.43
2023-04-03T09:34:18.218Z,2.50
2023-04-03T09:39:23.867Z,2.47
2023-04-03T09:44:28.207Z,2.83
2023-04-03T09:49:30.964Z,2.78
2023-04-03T09:54:41.902Z,2.53
2023-04-03T09:59:47.743Z,2.85
2023-04-03T10:05:02.452Z,2.60
2023-04-03T10:10:21.510Z,2.53
2023-04-03T10:15:35.709Z,2.88
2023-04-03T10:20:41.694Z,2.38
2023-04-03T10:25:52.622Z,2.60
2023-04-03T10:31:00.955Z,2.38
2023-04-03T10:36:12.819Z,2.40
2023-04-03T10:41:21.686Z,1.92
2023-04-03T10:46:30.622Z,1.88
2023-04-03T10:51:39.875Z,1.60
2023-04-03T10:56:47.245Z,1.20
2023-04-03T11:01:53.913Z,1.25
2023-04-03T11:07:00.324Z,1.10
2023-04-03T11:12:07.452Z,1.13
2023-04-03T11:17:31.409Z,1.00
2023-04-03T11:22:37.328Z,1.00
2023-04-03T11:27:44.785Z,0.90
2023-04-03T11:33:01.761Z,1.00
2023-04-03T11:38:07.459Z,1.13
2023-04-03T11:43:24.196Z,1.08
2023-04-03T11:48:49.527Z,1.00
2023-04-03T11:53:52.334Z,1.15
2023-04-03T11:59:28.439Z,1.17
2023-04-03T12:04:32.992Z,1.10
2023-04-03T12:09:58.669Z,1.20
2023-04-03T12:15:25.441Z,0.95
2023-04-03T12:20:57.177Z,1.10
2023-04-03T12:26:13.245Z,1.00
2023-04-03T12:31:18.054Z,1.00
2023-04-03T12:36:27.132Z,1.00
2023-04-03T12:41:38.482Z,1.30
2023-04-03T12:46:45.776Z,1.20
2023-04-03T12:51:49.117Z,1.15
2023-04-03T12:56:52.644Z,1.00
2023-04-03T13:01:58.208Z,1.10
2023-04-03T13:07:01.179Z,0.90
2023-04-03T13:12:05.831Z,1.00
2023-04-03T13:17:15.840Z,1.30
2023-04-03T13:22:29.062Z,1.08
2023-04-03T13:27:32.631Z,0.93
2023-04-03T13:32:36.824Z,0.73
2023-04-03T13:37:39.655Z,0.90
2023-04-03T13:42:43.617Z,1.20
2023-04-03T13:47:49.472Z,0.80
2023-04-03T13:52:55.880Z,1.17
2023-04-03T13:58:00.897Z,1.00
2023-04-03T14:03:10.119Z,1.50
2023-04-03T14:08:12.924Z,1.63
2023-04-03T14:13:16.720Z,0.80
2023-04-03T14:18:22.320Z,1.02
2023-04-03T14:23:25.258Z,0.88
2023-04-03T14:28:28.077Z,1.08
2023-04-03T14:33:35.736Z,0.98
2023-04-03T14:38:38.602Z,0.97
2023-04-03T14:43:41.390Z,1.42
2023-04-03T14:49:08.627Z,1.33
2023-04-03T14:54:15.109Z,0.95
2023-04-03T14:59:18.630Z,1.15
2023-04-03T15:04:23.380Z,1.30
2023-04-03T15:09:28.838Z,1.40
2023-04-03T15:14:37.465Z,1.55
2023-04-03T15:19:51.654Z,1.70
2023-04-03T15:24:54.646Z,1.58
2023-04-03T15:29:57.543Z,1.20
2023-04-03T15:35:01.720Z,1.40
2023-04-03T15:40:05.153Z,1.50
2023-04-03T15:45:09.406Z,1.23
2023-04-03T15:50:14.702Z,1.30
2023-04-03T15:55:17.820Z,1.27
2023-04-03T16:00:21.507Z,1.33
2023-04-03T16:05:26.358Z,1.27
2023-04-03T16:10:29.931Z,1.60
2023-04-03T16:15:33.276Z,1.53
2023-04-03T16:20:37.936Z,1.88
2023-04-03T16:25:41.264Z,1.80
2023-04-03T16:30:44.387Z,1.63
2023-04-03T16:35:49.080Z,1.70
2023-04-03T16:40:53.333Z,1.95
2023-04-03T16:45:56.112Z,1.63
2023-04-03T16:51:00.958Z,1.67
2023-04-03T16:56:04.063Z,2.25
2023-04-03T17:01:14.238Z,1.90
2023-04-03T17:06:20.997Z,1.52
2023-04-03T17:11:24.083Z,2.10
2023-04-03T17:16:27.715Z,1.75
2023-04-03T17:21:33.129Z,2.10
2023-04-03T17:26:37.319Z,1.92
2023-04-03T17:31:40.162Z,2.50
2023-04-03T17:36:44.515Z,1.88
2023-04-03T17:41:49.211Z,1.92
2023-04-03T17:46:52.208Z,2.00
2023-04-03T17:51:56.366Z,2.20
2023-04-03T17:56:59.199Z,2.70
2023-04-03T18:02:02.145Z,2.47
2023-04-03T18:07:09.599Z,2.20
2023-04-03T18:12:12.612Z,2.57
2023-04-03T18:22:42.275Z,2.20
2023-04-03T18:27:46.073Z,2.55
2023-04-03T18:32:49.078Z,2.45
2023-04-03T18:37:53.283Z,2.58
2023-04-03T18:42:56.128Z,2.28
2023-04-03T18:47:59.232Z,2.65
2023-04-03T18:53:03.505Z,2.83
2023-04-03T18:58:06.514Z,2.85
2023-04-03T19:03:10.771Z,2.80
2023-04-03T19:08:15.555Z,2.72
2023-04-03T19:13:18.436Z,2.70
2023-04-03T19:18:21.713Z,2.25
2023-04-03T19:23:26.212Z,2.72
2023-04-03T19:28:29.457Z,2.90
2023-04-03T19:33:32.224Z,2.58
2023-04-03T19:38:36.384Z,3.05
2023-04-03T19:43:39.532Z,2.90
2023-04-03T19:48:42.371Z,2.35
2023-04-03T19:53:47.300Z,2.50
2023-04-03T19:58:54.035Z,2.25
2023-04-03T20:03:58.287Z,2.88
2023-04-03T20:09:02.512Z,2.60
2023-04-03T20:14:05.741Z,2.78
2023-04-03T20:19:09.426Z,2.17
2023-04-03T20:24:15.606Z,2.85
2023-04-03T20:29:19.426Z,3.10
2023-04-03T20:34:22.340Z,3.10
2023-04-03T20:39:26.646Z,3.30
2023-04-03T20:44:29.469Z,3.80
2023-04-03T20:49:32.360Z,3.85
2023-04-03T20:54:37.533Z,3.50
2023-04-03T20:59:40.337Z,3.38
2023-04-03T21:04:47.088Z,2.92
2023-04-03T21:10:28.373Z,3.30
2023-04-03T21:15:51.975Z,2.47
2023-04-03T21:20:56.509Z,2.58
2023-04-03T21:26:00.570Z,2.35
2023-04-03T21:31:03.660Z,2.10
2023-04-03T21:36:08.866Z,2.13
2023-04-03T21:41:11.718Z,1.83
2023-04-03T21:46:14.781Z,1.80
2023-04-03T21:51:18.972Z,2.00
2023-04-03T21:56:22.686Z,2.40
2023-04-03T22:01:25.604Z,2.30
2023-04-03T22:06:30.509Z,2.92
2023-04-03T22:11:33.378Z,2.95
2023-04-03T22:16:36.341Z,2.30
2023-04-03T22:21:41.054Z,2.60
2023-04-03T22:26:44.692Z,2.65
2023-04-03T22:31:47.708Z,2.05
2023-04-03T22:36:53.551Z,2.42
2023-04-03T22:41:56.941Z,2.20
2023-04-03T22:46:59.800Z,2.50
2023-04-03T22:52:04.064Z,2.70
2023-04-03T22:57:06.900Z,2.85
2023-04-03T23:02:09.784Z,3.22
2023-04-03T23:07:13.896Z,3.40
2023-04-03T23:12:16.970Z,3.17
2023-04-03T23:17:19.770Z,3.40
2023-04-03T23:22:24.180Z,3.30
2023-04-03T23:27:26.985Z,3.10
2023-04-03T23:32:30.320Z,3.53
2023-04-03T23:37:34.545Z,3.67
2023-04-03T23:42:37.414Z,3.40
2023-04-03T23:47:40.266Z,3.63
2023-04-03T23:52:44.485Z,4.03
2023-04-03T23:57:47.243Z,4.63
